Time;durP1;ratioP1;P1;durP2;ratioP2;P2;SDS_P1;SDS_P2;PMS_P1;PMS_P2;Temp;Humidity;BMP_temperature;BMP_pressure;BME280_temperature;BME280_humidity;BME280_pressure;Samples;Min_cycle;Max_cycle;Signal;HPM_P1;HPM_P2
2024/04/14 00:01:12;;;;;;;0.00;0.00;;;;;;;15.56;100.00;99732.88;5434077;26;21018;-57
2024/04/14 00:03:41;;;;;;;0.10;0.10;;;;;;;15.57;100.00;99734.50;5452061;26;20087;-57
2024/04/14 00:06:07;;;;;;;0.00;0.00;;;;;;;15.53;100.00;99736.09;5470783;26;20003;-60
2024/04/14 00:08:36;;;;;;;0.00;0.00;;;;;;;15.56;100.00;99738.28;5451017;26;20351;-57
2024/04/14 00:11:03;;;;;;;0.00;0.00;;;;;;;15.45;100.00;99731.19;5460899;26;20002;-57
2024/04/14 00:13:34;;;;;;;0.03;0.03;;;;;;;15.42;100.00;99731.72;5452442;26;20017;-58
2024/04/14 00:16:04;;;;;;;0.00;0.00;;;;;;;15.38;100.00;99733.34;5457345;26;20659;-58
2024/04/14 00:18:35;;;;;;;0.03;0.03;;;;;;;15.49;100.00;99725.00;5455727;26;20123;-58
2024/04/14 00:21:02;;;;;;;0.08;0.08;;;;;;;15.46;100.00;99727.44;5443998;26;20760;-58
2024/04/14 00:23:31;;;;;;;0.10;0.10;;;;;;;15.31;100.00;99728.16;5458228;26;20014;-58
2024/04/14 00:25:57;;;;;;;0.03;0.03;;;;;;;15.24;100.00;99724.88;5453563;26;20054;-58
2024/04/14 00:28:26;;;;;;;0.10;0.10;;;;;;;15.26;100.00;99726.22;5460707;26;20007;-57
2024/04/14 00:30:53;;;;;;;0.00;0.00;;;;;;;15.27;100.00;99730.53;5454603;26;20006;-57
2024/04/14 00:33:21;;;;;;;0.00;0.00;;;;;;;15.25;100.00;99726.47;5450227;26;20444;-58
2024/04/14 00:35:50;;;;;;;0.00;0.00;;;;;;;15.40;100.00;99720.34;5448647;26;20461;-58
2024/04/14 00:38:19;;;;;;;0.10;0.10;;;;;;;15.32;100.00;99721.66;5437787;26;20006;-58
2024/04/14 00:40:45;;;;;;;0.05;0.05;;;;;;;15.30;100.00;99713.00;5452877;26;20007;-58
2024/04/14 00:43:17;;;;;;;0.10;0.10;;;;;;;15.12;100.00;99719.66;5453234;26;20006;-58
2024/04/14 00:45:43;;;;;;;0.05;0.05;;;;;;;15.25;100.00;99711.13;5446901;26;20019;-57
2024/04/14 00:48:12;;;;;;;0.10;0.10;;;;;;;15.22;100.00;99708.91;5448813;26;20014;-58
2024/04/14 00:50:39;;;;;;;0.00;0.00;;;;;;;15.29;100.00;99712.19;5454559;26;20025;-58
2024/04/14 00:53:11;;;;;;;0.10;0.10;;;;;;;15.29;100.00;99712.19;5453599;26;20428;-58
2024/04/14 00:55:38;;;;;;;0.10;0.10;;;;;;;15.14;100.00;99714.81;5461357;26;20508;-58
2024/04/14 00:58:06;;;;;;;0.03;0.03;;;;;;;15.17;100.00;99718.88;5446367;26;20066;-57
2024/04/14 01:00:33;;;;;;;0.00;0.00;;;;;;;15.24;100.00;99720.28;5440657;26;20005;-58
2024/04/14 01:03:01;;;;;;;0.00;0.00;;;;;;;15.31;100.00;99723.56;5458888;26;20387;-58
2024/04/14 01:05:28;;;;;;;0.00;0.00;;;;;;;15.26;100.00;99720.03;5458763;26;20002;-58
2024/04/14 01:07:57;;;;;;;0.00;0.00;;;;;;;15.16;100.00;99712.66;5433802;26;20449;-58
2024/04/14 01:10:29;;;;;;;0.10;0.10;;;;;;;15.24;100.00;99712.16;5440345;26;20002;-58
2024/04/14 01:12:58;;;;;;;0.10;0.10;;;;;;;15.18;100.00;99721.34;5459575;26;20005;-60
2024/04/14 01:15:25;;;;;;;0.10;0.10;;;;;;;15.15;100.00;99721.03;5431145;26;20020;-58
2024/04/14 01:17:56;;;;;;;0.10;0.10;;;;;;;15.18;100.00;99732.13;5444555;26;20010;-58
2024/04/14 01:20:22;;;;;;;0.10;0.10;;;;;;;15.02;100.00;99720.41;5456930;26;20002;-58
2024/04/14 01:22:51;;;;;;;0.10;0.10;;;;;;;15.09;100.00;99718.28;5449877;25;20043;-58
2024/04/14 01:25:25;;;;;;;0.00;0.00;;;;;;;15.28;100.00;99729.50;5460409;26;20510;-58
2024/04/14 01:27:54;;;;;;;0.00;0.00;;;;;;;15.42;100.00;99731.72;5441876;26;20002;-57
2024/04/14 01:30:21;;;;;;;0.00;0.00;;;;;;;15.57;100.00;99722.88;5445287;26;20021;-58
2024/04/14 01:32:50;;;;;;;0.10;0.10;;;;;;;15.76;100.00;99721.38;5453796;26;20665;-58
2024/04/14 01:35:19;;;;;;;0.03;0.03;;;;;;;15.78;100.00;99723.81;5445219;26;20434;-57
2024/04/14 01:37:45;;;;;;;0.00;0.00;;;;;;;15.63;100.00;99738.84;5446492;26;20005;-58
2024/04/14 01:40:17;;;;;;;0.10;0.10;;;;;;;15.68;100.00;99724.56;5460749;26;20021;-58
2024/04/14 01:42:46;;;;;;;0.10;0.10;;;;;;;15.68;100.00;99729.97;5444732;26;20000;-58
2024/04/14 01:45:25;;;;;;;0.00;0.00;;;;;;;15.45;100.00;99731.19;5458101;26;20070;-58
2024/04/14 01:47:51;;;;;;;0.00;0.00;;;;;;;15.51;100.00;99728.25;5453715;26;19999;-58
2024/04/14 01:50:20;;;;;;;0.00;0.00;;;;;;;15.50;100.00;99734.75;5439971;26;20075;-58
2024/04/14 01:52:46;;;;;;;0.00;0.00;;;;;;;15.75;100.00;99727.88;5448790;26;20019;-58
2024/04/14 01:55:15;;;;;;;0.00;0.00;;;;;;;15.85;100.00;99732.47;5457327;26;19998;-58
2024/04/14 01:57:46;;;;;;;0.00;0.00;;;;;;;15.84;100.00;99733.56;5463490;26;20176;-57
2024/04/14 02:00:16;;;;;;;0.10;0.10;;;;;;;15.79;100.00;99730.84;5450106;26;20229;-58
2024/04/14 02:02:42;;;;;;;0.00;0.00;;;;;;;15.82;100.00;99725.72;5451361;26;20382;-58
2024/04/14 02:05:13;;;;;;;0.10;0.10;;;;;;;15.87;100.00;99727.63;5460173;26;20042;-57
2024/04/14 02:07:39;;;;;;;0.00;0.00;;;;;;;15.79;100.00;99731.66;5461913;26;20048;-57
2024/04/14 02:10:09;;;;;;;0.00;0.00;;;;;;;15.75;100.00;99730.56;5463057;26;19998;-58
2024/04/14 02:12:36;;;;;;;;;;;;;;;15.82;100.00;99731.13;5454858;26;20042;-58
2024/04/14 02:15:08;;;;;;;0.00;0.00;;;;;;;15.76;100.00;99737.59;5453325;26;19940;-58
2024/04/14 02:17:35;;;;;;;0.10;0.10;;;;;;;15.69;100.00;99737.81;5458236;26;20034;-58
2024/04/14 02:20:04;;;;;;;0.00;0.00;;;;;;;15.43;100.00;99744.97;5436073;26;20059;-58
2024/04/14 02:22:33;;;;;;;0.03;0.03;;;;;;;15.39;100.00;99733.06;5479083;25;20694;-58
2024/04/14 02:25:02;;;;;;;0.10;0.10;;;;;;;15.51;100.00;99741.75;5453446;26;20024;-58
2024/04/14 02:27:28;;;;;;;0.10;0.10;;;;;;;15.49;100.00;99746.59;5446272;26;20014;-58
2024/04/14 02:29:57;;;;;;;0.10;0.10;;;;;;;15.45;100.00;99740.13;5462064;26;20010;-58
2024/04/14 02:32:26;;;;;;;0.10;0.10;;;;;;;15.38;100.00;99746.84;5460375;26;20006;-57
2024/04/14 02:34:55;;;;;;;0.00;0.00;;;;;;;15.28;100.00;99740.28;5453335;26;20414;-58
2024/04/14 02:37:21;;;;;;;0.00;0.00;;;;;;;15.21;100.00;99752.41;5447306;26;20010;-58
2024/04/14 02:39:50;;;;;;;0.00;0.00;;;;;;;15.13;100.00;99753.69;5454382;26;20007;-58
2024/04/14 02:42:19;;;;;;;0.10;0.10;;;;;;;15.10;100.00;99740.69;5454453;26;20007;-58
2024/04/14 02:44:48;;;;;;;0.10;0.10;;;;;;;15.04;100.00;99747.94;5452284;26;20478;-57
2024/04/14 02:47:14;;;;;;;0.10;0.10;;;;;;;14.49;100.00;99753.66;5454466;26;20021;-58
2024/04/14 02:49:46;;;;;;;0.00;0.00;;;;;;;13.72;100.00;99752.81;5459274;26;20270;-58
2024/04/14 02:52:14;;;;;;;0.08;0.08;;;;;;;13.63;100.00;99751.63;5452565;26;20573;-58
2024/04/14 02:54:50;;;;;;;0.10;0.10;;;;;;;13.62;100.00;99768.84;5468856;26;20447;-58
2024/04/14 02:57:16;;;;;;;0.10;0.10;;;;;;;13.45;100.00;99768.88;5454324;26;20003;-58
2024/04/14 02:59:45;;;;;;;0.10;0.10;;;;;;;13.27;100.00;99772.66;5461413;26;20009;-58
2024/04/14 03:02:13;;;;;;;0.10;0.10;;;;;;;13.30;100.00;99772.16;5448229;26;20014;-58
2024/04/14 03:04:45;;;;;;;0.03;0.03;;;;;;;13.28;100.00;99779.66;5459322;26;20006;-57
2024/04/14 03:07:13;;;;;;;0.10;0.10;;;;;;;13.19;100.00;99779.25;5462821;26;20450;-58
2024/04/14 03:09:42;;;;;;;0.10;0.10;;;;;;;13.33;100.00;99782.47;5455881;26;20014;-58
2024/04/14 03:12:10;;;;;;;0.03;0.03;;;;;;;13.52;82.10;99786.50;5458006;26;20007;-57
2024/04/14 03:14:39;;;;;;;0.10;0.10;;;;;;;13.77;73.45;99782.50;5452679;26;20044;-57
2024/04/14 03:17:05;;;;;;;0.10;0.10;;;;;;;13.76;64.72;99786.28;5458997;26;20006;-58
2024/04/14 03:19:35;;;;;;;0.00;0.00;;;;;;;13.90;60.40;99790.22;5464351;26;20017;-57
2024/04/14 03:22:04;;;;;;;0.10;0.10;;;;;;;13.92;59.79;99780.00;5453258;26;20018;-57
2024/04/14 03:24:36;;;;;;;0.10;0.10;;;;;;;13.77;61.05;99785.22;5453096;26;20006;-57
2024/04/14 03:27:02;;;;;;;0.00;0.00;;;;;;;13.61;62.05;99784.19;5441491;26;20420;-58
2024/04/14 03:29:31;;;;;;;0.10;0.10;;;;;;;13.48;64.04;99787.22;5445819;26;20003;-57
2024/04/14 03:31:57;;;;;;;0.10;0.10;;;;;;;13.25;64.99;99785.53;5456748;26;20621;-57
2024/04/14 03:34:25;;;;;;;0.10;0.10;;;;;;;13.31;62.45;99782.69;5448656;26;20024;-57
2024/04/14 03:36:54;;;;;;;0.10;0.10;;;;;;;13.26;64.33;99776.41;5452967;26;20161;-57
2024/04/14 03:39:26;;;;;;;0.10;0.10;;;;;;;13.25;63.98;99785.53;5462572;26;20520;-57
2024/04/14 03:41:55;;;;;;;0.00;0.00;;;;;;;13.17;64.40;99790.25;5446704;26;19998;-57
2024/04/14 03:44:24;;;;;;;0.08;0.08;;;;;;;13.05;65.25;99789.53;5472822;25;20014;-57
2024/04/14 03:46:52;;;;;;;0.00;0.00;;;;;;;13.05;65.63;99789.53;5449837;26;20007;-58
2024/04/14 03:49:23;;;;;;;0.10;0.10;;;;;;;13.04;65.51;99789.78;5444890;26;20318;-57
2024/04/14 03:51:53;;;;;;;0.20;0.20;;;;;;;13.12;66.67;99798.25;5463553;26;20607;-57
2024/04/14 03:54:24;;;;;;;0.10;0.10;;;;;;;13.15;65.31;99797.78;5462716;26;20002;-58
2024/04/14 03:56:53;;;;;;;0.10;0.10;;;;;;;13.23;65.42;99801.94;5459177;26;19994;-57
2024/04/14 03:59:21;;;;;;;0.10;0.10;;;;;;;13.29;66.58;99805.56;5458509;26;20007;-57
2024/04/14 04:01:48;;;;;;;0.10;0.10;;;;;;;13.24;65.62;99802.75;5451966;26;20067;-58
2024/04/14 04:04:19;;;;;;;0.10;0.10;;;;;;;13.25;65.31;99807.88;5455401;26;20606;-57
2024/04/14 04:06:45;;;;;;;0.10;0.10;;;;;;;13.22;66.41;99818.31;5462572;26;20117;-57
2024/04/14 04:09:14;;;;;;;0.10;0.10;;;;;;;13.19;67.70;99814.25;5451237;26;20007;-57
2024/04/14 04:11:41;;;;;;;0.10;0.10;;;;;;;13.20;65.83;99810.47;5444933;26;20000;-58
2024/04/14 04:14:12;;;;;;;0.10;0.10;;;;;;;13.20;65.74;99810.47;5453133;26;20014;-58
2024/04/14 04:16:39;;;;;;;0.10;0.10;;;;;;;13.17;68.69;99809.09;5450226;26;20532;-58
2024/04/14 04:19:07;;;;;;;0.10;0.10;;;;;;;13.11;67.16;99812.78;5446530;26;20022;-58
2024/04/14 04:21:34;;;;;;;0.10;0.10;;;;;;;12.86;69.81;99815.06;5447589;26;20079;-58
2024/04/14 04:24:04;;;;;;;0.10;0.10;;;;;;;12.70;71.65;99817.50;5447292;26;20391;-58
2024/04/14 04:26:30;;;;;;;0.10;0.10;;;;;;;12.39;74.80;99816.09;5459716;26;20689;-58
2024/04/14 04:28:58;;;;;;;0.10;0.10;;;;;;;12.24;75.82;99813.94;5446852;26;20010;-58
2024/04/14 04:31:27;;;;;;;0.10;0.10;;;;;;;12.21;76.98;99814.41;5455992;26;20248;-58
2024/04/14 04:33:56;;;;;;;0.10;0.10;;;;;;;12.12;76.41;99815.84;5447079;26;20018;-58
2024/04/14 04:36:22;;;;;;;0.20;0.20;;;;;;;12.07;76.75;99818.41;5458273;26;20003;-58
2024/04/14 04:38:51;;;;;;;0.10;0.10;;;;;;;12.23;75.84;99823.06;5451052;26;20006;-58
2024/04/14 04:41:17;;;;;;;0.10;0.10;;;;;;;12.05;76.68;99829.38;5456662;26;20002;-57
2024/04/14 04:43:46;;;;;;;0.10;0.10;;;;;;;12.18;76.35;99830.19;5457280;26;20017;-58
2024/04/14 04:46:12;;;;;;;0.10;0.10;;;;;;;12.04;76.67;99821.59;5463385;26;20384;-58
2024/04/14 04:48:43;;;;;;;0.20;0.20;;;;;;;12.21;76.27;99825.16;5457072;26;20029;-58
2024/04/14 04:51:09;;;;;;;0.15;0.15;;;;;;;12.22;76.34;99821.41;5453612;26;20412;-57
2024/04/14 04:53:38;;;;;;;0.10;0.10;;;;;;;12.22;74.76;99826.78;5454972;26;20627;-58
2024/04/14 04:56:07;;;;;;;0.10;0.10;;;;;;;12.27;74.77;99816.13;5453895;26;20028;-57
2024/04/14 04:58:36;;;;;;;0.17;0.17;;;;;;;12.28;76.05;99825.00;5462025;26;19998;-59
2024/04/14 05:01:04;;;;;;;0.15;0.15;;;;;;;12.33;75.15;99818.91;5457516;26;20334;-59
2024/04/14 05:03:33;;;;;;;0.10;0.10;;;;;;;12.53;75.28;99819.31;5467334;26;20009;-59
2024/04/14 05:06:03;;;;;;;0.20;0.20;;;;;;;12.58;74.34;99823.94;5446599;26;20623;-59
2024/04/14 05:08:31;;;;;;;0.20;0.20;;;;;;;12.61;74.51;99820.81;5455134;26;20466;-59
2024/04/14 05:10:58;;;;;;;0.10;0.10;;;;;;;12.89;74.75;99814.56;5447624;26;20017;-59
2024/04/14 05:13:27;;;;;;;0.10;0.10;;;;;;;12.77;74.29;99820.00;5478493;25;20452;-58
2024/04/14 05:15:53;;;;;;;0.15;0.15;;;;;;;12.87;74.35;99822.88;5460679;26;20006;-59
2024/04/14 05:18:22;;;;;;;0.10;0.10;;;;;;;13.16;73.26;99823.63;5451817;26;20018;-59
2024/04/14 05:20:49;;;;;;;0.10;0.10;;;;;;;12.97;73.48;99816.84;5467154;26;20414;-59
2024/04/14 05:23:20;;;;;;;0.10;0.10;;;;;;;13.16;71.96;99815.56;5455371;26;20025;-59
2024/04/14 05:25:48;;;;;;;0.13;0.13;;;;;;;13.42;71.27;99828.63;5451708;26;20023;-59
2024/04/14 05:28:17;;;;;;;0.20;0.20;;;;;;;13.14;72.16;99828.44;5463084;26;20006;-58
2024/04/14 05:30:43;;;;;;;0.10;0.10;;;;;;;13.83;68.76;99827.34;5452460;26;20084;-59
2024/04/14 05:33:15;;;;;;;0.10;0.10;;;;;;;13.84;68.77;99834.34;5465975;26;20002;-59
2024/04/14 05:35:52;;;;;;;0.10;0.10;;;;;;;14.16;67.12;99828.28;5452473;26;20014;-59
2024/04/14 05:38:23;;;;;;;0.10;0.10;;;;;;;14.19;68.18;99831.28;5447368;26;20047;-59
2024/04/14 05:40:50;;;;;;;0.10;0.10;;;;;;;14.14;67.41;99835.81;5449397;26;20082;-58
2024/04/14 05:43:19;;;;;;;0.10;0.10;;;;;;;13.62;70.98;99828.09;5450624;26;20023;-59
2024/04/14 05:45:45;;;;;;;0.10;0.10;;;;;;;13.51;71.52;99827.16;5460859;26;20124;-59
2024/04/14 05:48:14;;;;;;;0.10;0.10;;;;;;;14.17;69.95;99824.50;5451998;25;20299;-58
2024/04/14 05:50:41;;;;;;;0.10;0.10;;;;;;;14.92;66.28;99830.19;5451074;26;20634;-59
2024/04/14 05:53:10;;;;;;;0.10;0.10;;;;;;;15.08;65.82;99823.84;5452660;26;20358;-59
2024/04/14 05:55:38;;;;;;;0.15;0.15;;;;;;;15.02;66.90;99832.97;5452325;26;20017;-59
2024/04/14 05:58:07;;;;;;;0.10;0.10;;;;;;;15.74;64.62;99831.63;5444576;26;20014;-59
2024/04/14 06:00:35;;;;;;;0.10;0.10;;;;;;;17.06;58.26;99848.56;5445464;26;20575;-59
2024/04/14 06:03:04;;;;;;;0.10;0.10;;;;;;;17.87;54.75;99845.81;5458660;26;19999;-58
2024/04/14 06:05:31;;;;;;;0.00;0.00;;;;;;;16.94;57.94;99848.81;5448795;26;20365;-57
2024/04/14 06:08:01;;;;;;;0.00;0.00;;;;;;;16.74;59.45;99849.56;5451228;26;20179;-57
2024/04/14 06:10:28;;;;;;;0.00;0.00;;;;;;;16.48;61.23;99852.22;5451610;26;20007;-58
2024/04/14 06:13:00;;;;;;;0.10;0.10;;;;;;;17.16;58.45;99859.41;5453874;26;20010;-57
2024/04/14 06:15:26;;;;;;;0.10;0.10;;;;;;;18.21;54.54;99860.59;5451232;26;20009;-58
2024/04/14 06:17:56;;;;;;;0.00;0.00;;;;;;;18.92;51.99;99862.13;5466419;26;20056;-58
2024/04/14 06:20:22;;;;;;;0.10;0.10;;;;;;;18.71;51.93;99867.66;5437806;26;20095;-57
2024/04/14 06:22:51;;;;;;;0.00;0.00;;;;;;;19.03;50.47;99871.84;5466074;26;20249;-58
2024/04/14 06:25:17;;;;;;;0.00;0.00;;;;;;;19.22;52.29;99879.28;5428266;26;20002;-58
2024/04/14 06:27:46;;;;;;;0.00;0.00;;;;;;;19.90;48.95;99878.44;5446325;26;20429;-58
2024/04/14 06:30:15;;;;;;;0.00;0.00;;;;;;;20.08;47.48;99879.63;5462245;26;20044;-57
2024/04/14 06:32:44;;;;;;;;;;;;;;;19.61;48.33;99885.47;5458673;26;20527;-58
2024/04/14 06:35:10;;;;;;;0.00;0.00;;;;;;;19.32;49.88;99890.91;5463715;26;22194;-58
2024/04/14 06:37:39;;;;;;;0.00;0.00;;;;;;;19.75;49.10;99893.81;5459879;26;20010;-58
2024/04/14 06:40:07;;;;;;;0.00;0.00;;;;;;;19.31;50.46;99894.72;5447898;26;20473;-58
2024/04/14 06:42:35;;;;;;;0.00;0.00;;;;;;;18.99;51.17;99895.22;5445318;26;20003;-58
2024/04/14 06:45:02;;;;;;;0.00;0.00;;;;;;;18.55;53.12;99898.72;5458130;26;20032;-57
2024/04/14 06:47:33;;;;;;;0.00;0.00;;;;;;;18.57;53.86;99896.53;5450661;26;20007;-58
2024/04/14 06:49:59;;;;;;;0.10;0.10;;;;;;;19.80;50.67;99901.13;5457068;26;20510;-58
2024/04/14 06:52:28;;;;;;;0.00;0.00;;;;;;;19.67;50.45;99902.63;5456281;26;20021;-58
2024/04/14 06:54:55;;;;;;;0.00;0.00;;;;;;;19.30;51.13;99892.31;5448269;26;19994;-58
2024/04/14 06:57:23;;;;;;;0.00;0.00;;;;;;;19.38;50.97;99905.28;5443719;26;20007;-58
2024/04/14 06:59:49;;;;;;;0.00;0.00;;;;;;;19.55;50.45;99913.03;5453096;26;20015;-58
2024/04/14 07:02:20;;;;;;;0.00;0.00;;;;;;;20.19;49.90;99903.72;5441860;26;19999;-58
2024/04/14 07:04:49;;;;;;;0.10;0.10;;;;;;;19.96;50.70;99904.50;5461472;26;19998;-58
2024/04/14 07:07:21;;;;;;;0.00;0.00;;;;;;;20.58;50.32;99913.59;5461502;26;20150;-58
2024/04/14 07:09:47;;;;;;;0.00;0.00;;;;;;;19.77;50.65;99901.72;5488337;25;20330;-58
2024/04/14 07:12:16;;;;;;;0.00;0.00;;;;;;;19.70;50.74;99903.94;5466376;26;20013;-58
2024/04/14 07:14:42;;;;;;;0.00;0.00;;;;;;;19.18;52.39;99904.31;5457427;26;20003;-58
2024/04/14 07:17:10;;;;;;;0.00;0.00;;;;;;;19.67;51.52;99907.19;5454057;26;20017;-58
2024/04/14 07:19:36;;;;;;;0.00;0.00;;;;;;;20.25;50.68;99905.25;5450426;26;20003;-58
2024/04/14 07:22:08;;;;;;;0.00;0.00;;;;;;;19.56;50.54;99901.84;5460858;26;20120;-57
2024/04/14 07:24:34;;;;;;;0.00;0.00;;;;;;;19.68;51.67;99903.41;5442564;26;20025;-58
2024/04/14 07:27:05;;;;;;;0.00;0.00;;;;;;;19.93;49.84;99905.06;5445205;26;19998;-59
2024/04/14 07:29:31;;;;;;;0.00;0.00;;;;;;;20.11;49.93;99911.69;5460224;26;20081;-58
2024/04/14 07:32:00;;;;;;;0.00;0.00;;;;;;;20.53;47.86;99904.66;5457046;26;20073;-58
2024/04/14 07:34:26;;;;;;;0.03;0.03;;;;;;;21.02;47.42;99908.91;5453521;26;20029;-58
2024/04/14 07:36:56;;;;;;;0.00;0.00;;;;;;;20.98;47.09;99900.50;5454445;26;20006;-58
2024/04/14 07:39:24;;;;;;;;;;;;;;;21.11;46.61;99896.22;5465945;26;20002;-58
2024/04/14 07:41:53;;;;;;;0.00;0.00;;;;;;;21.38;46.36;99894.72;5443185;26;19940;-58
2024/04/14 07:44:20;;;;;;;0.00;0.00;;;;;;;20.76;48.23;99903.00;5456333;26;20002;-58
2024/04/14 07:46:48;;;;;;;0.00;0.00;;;;;;;20.60;47.41;99897.78;5464339;26;20003;-58
2024/04/14 07:49:15;;;;;;;0.00;0.00;;;;;;;21.51;44.90;99897.50;5455688;26;19998;-58
2024/04/14 07:51:46;;;;;;;0.15;0.00;;;;;;;21.60;45.41;99903.09;5441579;26;20014;-58
2024/04/14 07:54:12;;;;;;;0.00;0.00;;;;;;;21.42;45.95;99893.06;5452299;26;20083;-58
2024/04/14 07:56:44;;;;;;;0.00;0.00;;;;;;;21.52;47.22;99906.53;5462490;26;20033;-58
2024/04/14 07:59:14;;;;;;;0.00;0.00;;;;;;;20.77;47.58;99902.72;5455064;26;20014;-58
2024/04/14 08:01:45;;;;;;;;;;;;;;;21.70;45.79;99894.72;5453813;26;20546;-59
2024/04/14 08:04:11;;;;;;;0.00;0.00;;;;;;;21.52;45.75;99896.41;5461144;26;19924;-58
2024/04/14 08:06:41;;;;;;;0.00;0.00;;;;;;;21.49;46.44;99907.09;5452416;26;20482;-58
2024/04/14 08:09:07;;;;;;;0.00;0.00;;;;;;;21.98;45.50;99905.69;5454515;26;20145;-59
2024/04/14 08:11:36;;;;;;;0.00;0.00;;;;;;;21.09;48.67;99909.34;5450215;26;20018;-58
2024/04/14 08:14:08;;;;;;;0.00;0.00;;;;;;;20.92;47.31;99903.59;5457554;26;20353;-58
2024/04/14 08:16:40;;;;;;;0.00;0.00;;;;;;;20.31;49.61;99903.28;5451212;26;20022;-58
2024/04/14 08:19:06;;;;;;;0.00;0.00;;;;;;;21.06;49.23;99904.47;5462106;26;20002;-58
2024/04/14 08:21:35;;;;;;;0.00;0.00;;;;;;;21.54;47.01;99909.72;5455590;26;20234;-58
2024/04/14 08:24:01;;;;;;;0.00;0.00;;;;;;;21.44;46.70;99916.19;5456523;26;20043;-58
2024/04/14 08:26:30;;;;;;;0.00;0.00;;;;;;;21.26;45.75;99912.34;5454131;26;20024;-58
2024/04/14 08:28:56;;;;;;;0.00;0.00;;;;;;;22.28;45.64;99912.50;5443753;26;20318;-58
2024/04/14 08:31:27;;;;;;;0.00;0.00;;;;;;;22.46;44.60;99913.50;5461402;26;20013;-60
2024/04/14 08:33:54;;;;;;;0.00;0.00;;;;;;;20.97;47.22;99912.53;5454405;26;20466;-58
2024/04/14 08:36:23;;;;;;;0.00;0.00;;;;;;;20.82;47.82;99910.81;5461228;26;20013;-58
2024/04/14 08:38:49;;;;;;;0.00;0.00;;;;;;;21.48;46.87;99910.94;5446982;26;20337;-58
2024/04/14 08:41:20;;;;;;;0.00;0.00;;;;;;;22.73;44.86;99914.56;5457638;26;19998;-57
2024/04/14 08:43:46;;;;;;;0.00;0.00;;;;;;;22.08;45.15;99916.41;5452087;26;20015;-58
2024/04/14 08:46:16;;;;;;;0.00;0.00;;;;;;;22.13;45.29;99916.31;5462676;26;20007;-58
2024/04/14 08:48:48;;;;;;;0.00;0.00;;;;;;;21.10;48.33;99910.97;5453717;26;20003;-58
2024/04/14 08:51:26;;;;;;;0.00;0.00;;;;;;;21.92;46.75;99904.19;5454180;26;20077;-58
2024/04/14 08:53:53;;;;;;;0.00;0.00;;;;;;;21.69;47.36;99906.75;5456083;26;20082;-57
2024/04/14 08:56:21;;;;;;;0.00;0.00;;;;;;;21.95;46.59;99909.81;5464809;26;20072;-58
2024/04/14 08:58:48;;;;;;;0.00;0.00;;;;;;;22.04;44.72;99904.50;5460274;26;20321;-58
2024/04/14 09:01:20;;;;;;;0.00;0.00;;;;;;;22.01;45.84;99913.25;5461882;26;20014;-57
2024/04/14 09:03:50;;;;;;;0.00;0.00;;;;;;;22.08;46.01;99902.75;5464376;26;20021;-58
2024/04/14 09:06:19;;;;;;;;;;;;;;;22.59;44.85;99907.22;5450277;26;20019;-57
2024/04/14 09:08:45;;;;;;;0.10;0.10;;;;;;;21.32;47.50;99903.00;5446294;26;19925;-58
2024/04/14 09:11:14;;;;;;;0.00;0.00;;;;;;;21.78;47.38;99903.34;5462600;26;20002;-58
2024/04/14 09:13:40;;;;;;;0.00;0.00;;;;;;;22.64;44.84;99902.75;5448162;26;20342;-57
2024/04/14 09:16:12;;;;;;;0.00;0.00;;;;;;;22.73;44.62;99907.19;5454063;26;20503;-58
2024/04/14 09:18:40;;;;;;;0.00;0.00;;;;;;;23.25;44.40;99906.84;5455310;26;20044;-57
2024/04/14 09:21:12;;;;;;;0.00;0.00;;;;;;;22.85;44.44;99903.94;5448452;26;20006;-58
2024/04/14 09:23:39;;;;;;;0.00;0.00;;;;;;;22.93;43.69;99902.38;5455986;26;20337;-58
2024/04/14 09:26:08;;;;;;;0.00;0.00;;;;;;;23.50;43.28;99912.81;5465185;26;20006;-57
2024/04/14 09:28:38;;;;;;;0.00;0.00;;;;;;;22.39;45.21;99902.19;5459255;26;20002;-57
2024/04/14 09:31:08;;;;;;;0.00;0.00;;;;;;;22.20;44.84;99905.03;5445725;26;20014;-58
2024/04/14 09:33:35;;;;;;;0.00;0.00;;;;;;;22.34;46.58;99905.84;5483864;26;20002;-58
2024/04/14 09:36:04;;;;;;;0.00;0.00;;;;;;;22.64;44.72;99905.47;5452248;26;20579;-58
2024/04/14 09:38:32;;;;;;;0.00;0.00;;;;;;;22.57;45.72;99901.25;5458885;26;20376;-58
2024/04/14 09:41:01;;;;;;;0.00;0.00;;;;;;;22.18;46.21;99902.56;5451969;26;20863;-58
2024/04/14 09:43:27;;;;;;;0.00;0.00;;;;;;;22.67;45.47;99905.69;5441173;26;20021;-57
2024/04/14 09:45:56;;;;;;;0.00;0.00;;;;;;;22.40;46.17;99903.81;5447420;26;20939;-58
2024/04/14 09:48:25;;;;;;;0.00;0.00;;;;;;;22.97;44.37;99898.75;5443516;26;19999;-58
2024/04/14 09:50:54;;;;;;;0.00;0.00;;;;;;;22.16;46.32;99888.41;5447025;26;20752;-58
2024/04/14 09:53:22;;;;;;;0.00;0.00;;;;;;;22.61;45.34;99902.28;5444434;26;20427;-59
2024/04/14 09:55:54;;;;;;;0.00;0.00;;;;;;;21.40;48.42;99901.53;5464197;26;20450;-59
2024/04/14 09:58:20;;;;;;;0.00;0.00;;;;;;;21.06;48.63;99905.28;5465717;26;19998;-58
2024/04/14 10:00:49;;;;;;;0.00;0.00;;;;;;;20.86;50.05;99900.94;5457106;26;20013;-59
2024/04/14 10:03:15;;;;;;;0.00;0.00;;;;;;;20.97;50.29;99900.81;5455601;26;20013;-58
2024/04/14 10:05:44;;;;;;;0.00;0.00;;;;;;;21.60;48.27;99903.09;5460592;26;20106;-58
2024/04/14 10:08:10;;;;;;;0.00;0.00;;;;;;;21.23;50.12;99898.50;5458601;26;20006;-58
2024/04/14 10:10:39;;;;;;;0.00;0.00;;;;;;;20.66;51.40;99906.69;5458634;26;20006;-59
2024/04/14 10:13:09;;;;;;;0.00;0.00;;;;;;;20.60;51.30;99907.88;5448329;26;20447;-58
2024/04/14 10:15:39;;;;;;;0.00;0.00;;;;;;;21.08;50.90;99902.28;5464404;26;20368;-58
2024/04/14 10:18:08;;;;;;;0.00;0.00;;;;;;;20.84;50.68;99897.72;5457989;26;19998;-59
2024/04/14 10:20:45;;;;;;;0.00;0.00;;;;;;;21.51;48.07;99893.97;5454816;26;20030;-58
2024/04/14 10:23:15;;;;;;;0.00;0.00;;;;;;;21.51;49.45;99888.53;5458290;26;20225;-58
2024/04/14 10:25:48;;;;;;;0.00;0.00;;;;;;;21.70;47.91;99889.28;5451214;26;20010;-58
2024/04/14 10:28:21;;;;;;;0.00;0.00;;;;;;;21.34;48.78;99891.75;5461176;26;20079;-58
2024/04/14 10:30:50;;;;;;;0.10;0.10;;;;;;;20.43;51.89;99881.88;5451968;26;20734;-59
2024/04/14 10:33:20;;;;;;;0.00;0.00;;;;;;;21.33;49.26;99885.50;5472231;26;20002;-58
2024/04/14 10:36:01;;;;;;;0.10;0.10;;;;;;;21.64;49.48;99882.31;5451403;26;20013;-59
2024/04/14 10:38:28;;;;;;;0.00;0.00;;;;;;;22.36;49.01;99891.84;5453477;26;20069;-58
2024/04/14 10:40:57;;;;;;;0.00;0.00;;;;;;;21.69;49.37;99867.75;5445415;26;20006;-58
2024/04/14 10:43:26;;;;;;;0.00;0.00;;;;;;;21.08;51.42;99869.56;5498435;25;19999;-59
2024/04/14 10:45:55;;;;;;;0.00;0.00;;;;;;;20.67;52.16;99868.28;5465626;26;20003;-58
2024/04/14 10:48:23;;;;;;;0.00;0.00;;;;;;;21.10;50.61;99872.81;5465065;26;20384;-58
2024/04/14 10:50:52;;;;;;;0.00;0.00;;;;;;;21.96;50.25;99872.44;5433127;26;20022;-58
2024/04/14 10:53:18;;;;;;;0.00;0.00;;;;;;;21.57;48.98;99876.44;5458793;26;19998;-58
2024/04/14 10:55:47;;;;;;;0.00;0.00;;;;;;;21.02;51.02;99870.78;5455262;26;20027;-58
2024/04/14 10:58:13;;;;;;;0.00;0.00;;;;;;;20.59;52.33;99868.94;5454580;26;20002;-58
2024/04/14 11:00:45;;;;;;;0.00;0.00;;;;;;;20.92;50.75;99860.00;5459704;26;20016;-58
2024/04/14 11:03:11;;;;;;;0.00;0.00;;;;;;;21.67;50.67;99865.34;5455910;26;20468;-59
2024/04/14 11:05:39;;;;;;;0.00;0.00;;;;;;;22.05;48.93;99858.91;5458760;26;20018;-59
2024/04/14 11:08:11;;;;;;;0.00;0.00;;;;;;;20.80;50.09;99864.00;5466977;26;20063;-58
2024/04/14 11:10:40;;;;;;;0.00;0.00;;;;;;;19.67;54.56;99858.25;5468417;26;20002;-58
2024/04/14 11:13:06;;;;;;;0.00;0.00;;;;;;;20.67;52.23;99856.56;5450688;26;20013;-58
2024/04/14 11:15:34;;;;;;;0.00;0.00;;;;;;;20.07;53.01;99861.66;5454421;26;20074;-58
2024/04/14 11:18:03;;;;;;;0.00;0.00;;;;;;;20.01;54.32;99863.63;5454383;26;20414;-58
2024/04/14 11:20:32;;;;;;;0.00;0.00;;;;;;;19.44;54.73;99857.91;5459794;26;20050;-58
2024/04/14 11:23:00;;;;;;;0.00;0.00;;;;;;;19.67;56.95;99852.81;5441158;26;20002;-59
2024/04/14 11:25:29;;;;;;;0.00;0.00;;;;;;;20.84;52.91;99850.59;5448721;26;20038;-58
2024/04/14 11:27:55;;;;;;;0.00;0.00;;;;;;;21.24;51.65;99846.44;5453534;26;20007;-58
2024/04/14 11:30:28;;;;;;;0.00;0.00;;;;;;;21.58;50.31;99853.50;5457720;26;20022;-59
2024/04/14 11:32:54;;;;;;;0.00;0.00;;;;;;;20.34;52.27;99859.13;5453834;26;20317;-58
2024/04/14 11:35:25;;;;;;;0.00;0.00;;;;;;;19.75;54.78;99849.50;5446432;26;20154;-59
2024/04/14 11:37:54;;;;;;;0.00;0.00;;;;;;;20.85;52.85;99838.59;5460049;26;20066;-58